createdAt,value
2023-01-25T00:02:08.200Z,70.27
2023-01-25T00:04:34.838Z,70.79
2023-01-25T00:07:01.439Z,69.48
2023-01-25T00:09:28.062Z,69.68
2023-01-25T00:11:57.885Z,69.47
2023-01-25T00:14:25.073Z,69.56
2023-01-25T00:16:51.832Z,69.08
2023-01-25T00:19:18.804Z,69.62
2023-01-25T00:21:45.718Z,68.65
2023-01-25T00:24:14.188Z,69.49
2023-01-25T00:26:43.858Z,69.00
2023-01-25T00:29:14.290Z,70.68
2023-01-25T00:32:09.900Z,70.50
2023-01-25T00:34:44.309Z,70.14
2023-01-25T00:37:25.331Z,70.55
2023-01-25T00:39:52.203Z,70.50
2023-01-25T00:42:19.853Z,70.40
2023-01-25T00:44:47.771Z,69.35
2023-01-25T00:47:15.515Z,69.86
2023-01-25T00:49:43.715Z,70.43
2023-01-25T00:52:11.353Z,70.03
2023-01-25T00:54:38.520Z,69.25
2023-01-25T00:57:05.401Z,69.62
2023-01-25T00:59:32.514Z,68.55
2023-01-25T01:01:59.138Z,68.30
2023-01-25T01:04:26.180Z,69.07
2023-01-25T01:06:54.068Z,69.23
2023-01-25T01:09:22.065Z,69.22
2023-01-25T01:11:48.961Z,68.14
2023-01-25T01:15:14.521Z,67.71
2023-01-25T01:19:14.971Z,67.94
2023-01-25T01:22:18.940Z,68.76
2023-01-25T01:24:48.357Z,68.68
2023-01-25T01:27:15.033Z,68.70
2023-01-25T01:29:41.735Z,68.88
2023-01-25T01:32:08.614Z,69.10
2023-01-25T01:34:35.405Z,68.69
2023-01-25T01:37:02.002Z,68.07
2023-01-25T01:39:28.620Z,67.15
2023-01-25T01:41:55.321Z,68.04
2023-01-25T01:44:42.312Z,68.72
2023-01-25T01:47:15.744Z,68.99
2023-01-25T01:49:48.038Z,68.52
2023-01-25T01:52:20.357Z,69.20
2023-01-25T01:55:02.948Z,69.37
2023-01-25T01:57:40.827Z,68.57
2023-01-25T02:00:14.134Z,68.74
2023-01-25T02:02:42.403Z,68.63
2023-01-25T02:05:20.573Z,68.42
2023-01-25T02:07:51.669Z,67.22
2023-01-25T02:10:20.660Z,67.09
2023-01-25T02:12:48.809Z,66.49
2023-01-25T02:15:15.619Z,66.84
2023-01-25T02:17:42.669Z,67.82
2023-01-25T02:20:14.677Z,67.62
2023-01-25T02:22:53.268Z,67.56
2023-01-25T02:25:20.326Z,67.91
2023-01-25T02:28:28.983Z,68.40
2023-01-25T02:30:55.706Z,68.60
2023-01-25T02:33:25.124Z,68.17
2023-01-25T02:35:59.401Z,68.21
2023-01-25T02:38:28.055Z,68.62
2023-01-25T02:41:21.530Z,67.47
2023-01-25T02:43:48.148Z,68.38
2023-01-25T02:46:25.941Z,69.19
2023-01-25T02:48:56.365Z,69.05
2023-01-25T02:51:24.851Z,68.92
2023-01-25T02:53:52.406Z,67.28
2023-01-25T02:56:19.919Z,68.18
2023-01-25T02:58:48.113Z,67.05
2023-01-25T03:01:16.570Z,67.60
2023-01-25T03:03:43.311Z,67.29
2023-01-25T03:06:10.654Z,67.84
2023-01-25T03:08:37.555Z,68.11
2023-01-25T03:11:06.310Z,67.66
2023-01-25T03:13:35.409Z,67.79
2023-01-25T03:16:05.908Z,67.62
2023-01-25T03:18:33.736Z,67.31
2023-01-25T03:21:11.319Z,68.30
2023-01-25T03:23:39.819Z,68.64
2023-01-25T03:26:16.893Z,67.86
2023-01-25T03:29:07.533Z,68.07
2023-01-25T03:31:37.795Z,69.34
2023-01-25T03:34:04.474Z,70.29
2023-01-25T03:36:35.335Z,70.94
2023-01-25T03:39:03.213Z,70.15
2023-01-25T03:41:29.985Z,69.72
2023-01-25T03:43:59.213Z,69.41
2023-01-25T03:46:27.621Z,69.60
2023-01-25T03:48:54.413Z,70.27
2023-01-25T03:51:21.358Z,69.79
2023-01-25T03:53:48.320Z,70.12
2023-01-25T03:56:20.147Z,70.53
2023-01-25T03:59:07.988Z,69.53
2023-01-25T04:01:35.062Z,69.70
2023-01-25T04:04:02.711Z,68.80
2023-01-25T04:06:29.856Z,69.14
2023-01-25T04:08:57.326Z,69.54
2023-01-25T04:11:25.875Z,70.14
2023-01-25T04:13:52.520Z,69.27
2023-01-25T04:16:21.360Z,68.56
2023-01-25T04:19:12.005Z,69.37
2023-01-25T04:21:39.352Z,68.73
2023-01-25T04:24:06.314Z,69.37
2023-01-25T04:26:36.828Z,68.96
2023-01-25T04:29:03.830Z,68.76
2023-01-25T04:31:31.167Z,68.57
2023-01-25T04:33:58.192Z,68.81
2023-01-25T04:36:24.820Z,69.13
2023-01-25T04:38:51.783Z,69.96
2023-01-25T04:41:19.747Z,69.54
2023-01-25T04:43:46.281Z,70.15
2023-01-25T04:46:14.346Z,70.27
2023-01-25T04:48:40.926Z,69.72
2023-01-25T04:51:09.367Z,70.26
2023-01-25T04:53:35.909Z,70.38
2023-01-25T04:56:05.671Z,70.61
2023-01-25T04:58:38.039Z,70.91
2023-01-25T05:01:05.350Z,71.12
2023-01-25T05:03:32.440Z,70.66
2023-01-25T05:05:59.336Z,72.01
2023-01-25T05:08:26.739Z,71.42
2023-01-25T05:10:58.444Z,71.13
2023-01-25T05:13:25.114Z,71.08
2023-01-25T05:16:00.632Z,71.70
2023-01-25T05:18:33.135Z,71.69
2023-01-25T05:21:25.924Z,71.47
2023-01-25T05:23:53.137Z,72.24
2023-01-25T05:26:38.721Z,70.24
2023-01-25T05:29:06.611Z,68.92
2023-01-25T05:31:40.663Z,69.71
2023-01-25T05:34:09.069Z,69.55
2023-01-25T05:36:35.658Z,69.29
2023-01-25T05:39:02.221Z,69.99
2023-01-25T05:41:31.371Z,70.53
2023-01-25T05:43:58.455Z,70.83
2023-01-25T05:46:27.702Z,71.93
2023-01-25T05:48:54.596Z,71.48
2023-01-25T05:51:23.803Z,71.01
2023-01-25T05:53:50.477Z,72.27
2023-01-25T05:56:17.935Z,71.55
2023-01-25T05:58:44.538Z,72.71
2023-01-25T06:01:11.641Z,73.74
2023-01-25T06:03:46.764Z,72.89
2023-01-25T06:06:13.853Z,72.97
2023-01-25T06:08:42.071Z,72.63
2023-01-25T06:11:10.464Z,72.54
2023-01-25T06:13:41.097Z,71.76
2023-01-25T06:16:08.289Z,72.46
2023-01-25T06:18:58.101Z,71.81
2023-01-25T06:21:46.297Z,71.97
2023-01-25T06:24:12.886Z,71.82
2023-01-25T06:26:39.572Z,71.30
2023-01-25T06:29:06.877Z,70.95
2023-01-25T06:31:34.821Z,71.48
2023-01-25T06:34:04.426Z,72.39
2023-01-25T06:36:32.192Z,72.05
2023-01-25T06:38:58.767Z,72.04
2023-01-25T06:41:25.825Z,71.31
2023-01-25T06:43:53.048Z,72.17
2023-01-25T06:46:20.173Z,72.21
2023-01-25T06:48:46.799Z,71.94
2023-01-25T06:51:16.400Z,71.30
2023-01-25T06:53:44.721Z,72.00
2023-01-25T06:56:21.439Z,72.87
2023-01-25T06:58:49.026Z,71.87
2023-01-25T07:01:21.316Z,72.01
2023-01-25T07:03:53.646Z,71.07
2023-01-25T07:06:20.866Z,70.45
2023-01-25T07:08:48.185Z,69.43
2023-01-25T07:11:16.000Z,70.60
2023-01-25T07:13:45.612Z,69.68
2023-01-25T07:16:17.466Z,69.22
2023-01-25T07:18:44.476Z,70.60
2023-01-25T07:21:16.747Z,69.07
2023-01-25T07:23:44.089Z,70.23
2023-01-25T07:26:17.565Z,71.13
2023-01-25T07:28:45.850Z,71.84
2023-01-25T07:31:12.624Z,71.84
2023-01-25T07:33:39.153Z,72.51
2023-01-25T07:36:08.212Z,72.10
2023-01-25T07:38:36.267Z,72.00
2023-01-25T07:41:03.551Z,72.04
2023-01-25T07:43:30.631Z,72.09
2023-01-25T07:46:11.041Z,71.23
2023-01-25T07:48:38.396Z,71.86
2023-01-25T07:51:31.043Z,71.72
2023-01-25T07:54:03.081Z,72.01
2023-01-25T07:56:35.180Z,72.77
2023-01-25T07:59:08.044Z,73.55
2023-01-25T08:01:36.519Z,73.32
2023-01-25T08:04:04.666Z,73.14
2023-01-25T08:06:36.297Z,74.50
2023-01-25T08:09:11.036Z,73.89
2023-01-25T08:11:37.849Z,75.20
2023-01-25T08:14:04.522Z,74.48
2023-01-25T08:16:32.128Z,74.10
2023-01-25T08:19:00.950Z,74.28
2023-01-25T08:21:31.414Z,72.68
2023-01-25T08:24:04.117Z,72.43
2023-01-25T08:26:31.049Z,71.45
2023-01-25T08:28:58.291Z,71.85
2023-01-25T08:31:28.389Z,72.64
2023-01-25T08:33:55.382Z,72.05
2023-01-25T08:36:24.158Z,72.85
2023-01-25T08:38:55.820Z,71.98
2023-01-25T08:41:22.741Z,71.56
2023-01-25T08:43:52.544Z,71.61
2023-01-25T08:46:20.157Z,71.56
2023-01-25T08:48:47.928Z,71.79
2023-01-25T08:51:16.938Z,73.04
2023-01-25T08:53:43.958Z,72.96
2023-01-25T08:56:12.889Z,72.45
2023-01-25T08:58:42.062Z,72.79
2023-01-25T09:01:10.739Z,73.51
2023-01-25T09:03:46.096Z,74.18
2023-01-25T09:06:13.387Z,73.68
2023-01-25T09:08:40.304Z,73.88
2023-01-25T09:11:10.107Z,72.77
2023-01-25T09:13:36.972Z,73.16
2023-01-25T09:16:06.568Z,73.13
2023-01-25T09:18:35.353Z,71.83
2023-01-25T09:21:09.693Z,71.93
2023-01-25T09:23:50.259Z,73.02
2023-01-25T09:26:23.309Z,72.59
2023-01-25T09:28:52.456Z,73.23
2023-01-25T09:31:23.225Z,72.24
2023-01-25T09:34:08.917Z,72.07
2023-01-25T09:36:36.223Z,72.20
2023-01-25T09:39:03.379Z,72.17
2023-01-25T09:42:14.627Z,73.60
2023-01-25T09:45:07.130Z,71.67
2023-01-25T09:48:02.964Z,73.14
2023-01-25T09:50:38.341Z,73.03
2023-01-25T09:53:24.181Z,73.49
2023-01-25T09:55:54.081Z,72.89
2023-01-25T09:58:26.379Z,72.31
2023-01-25T10:01:05.853Z,72.91
2023-01-25T10:03:48.353Z,72.27
2023-01-25T10:06:17.353Z,72.12
2023-01-25T10:09:01.115Z,71.82
2023-01-25T10:11:30.671Z,72.33
2023-01-25T10:13:58.374Z,72.26
2023-01-25T10:16:46.181Z,72.93
2023-01-25T10:19:24.468Z,73.00
2023-01-25T10:22:29.901Z,73.40
2023-01-25T10:25:19.128Z,73.89
2023-01-25T10:27:50.053Z,73.86
2023-01-25T10:30:39.882Z,73.66
2023-01-25T10:33:18.009Z,73.05
2023-01-25T10:35:47.697Z,73.30
2023-01-25T10:38:23.432Z,73.59
2023-01-25T10:40:56.365Z,72.82
2023-01-25T10:43:23.361Z,73.18
2023-01-25T10:45:50.687Z,72.79
2023-01-25T10:48:24.568Z,74.27
2023-01-25T10:50:55.870Z,72.26
2023-01-25T10:53:26.671Z,73.05
2023-01-25T10:56:10.365Z,73.34
2023-01-25T10:58:39.878Z,72.93
2023-01-25T11:01:12.171Z,73.07
2023-01-25T11:03:46.917Z,73.47
2023-01-25T11:06:13.463Z,73.24
2023-01-25T11:08:42.257Z,74.32
2023-01-25T11:11:23.187Z,73.90
2023-01-25T11:13:50.321Z,73.42
2023-01-25T11:16:23.147Z,73.68
2023-01-25T11:18:52.268Z,74.37
2023-01-25T11:21:23.176Z,74.32
2023-01-25T11:24:01.668Z,74.49
2023-01-25T11:26:29.016Z,74.94
2023-01-25T11:29:12.512Z,74.50
2023-01-25T11:31:45.927Z,75.80
2023-01-25T11:34:15.848Z,75.04
2023-01-25T11:36:57.310Z,75.21
2023-01-25T11:39:47.948Z,76.09
2023-01-25T11:42:26.207Z,75.14
2023-01-25T11:45:09.720Z,73.77
2023-01-25T11:47:51.444Z,73.80
2023-01-25T11:50:36.021Z,74.36
2023-01-25T11:53:21.417Z,75.85
2023-01-25T11:56:15.047Z,77.01
2023-01-25T11:59:06.142Z,75.71
2023-01-25T12:01:41.485Z,76.50
2023-01-25T12:04:08.010Z,75.04
2023-01-25T12:06:55.568Z,75.08
2023-01-25T12:09:36.538Z,75.42
2023-01-25T12:12:18.409Z,74.38
2023-01-25T12:14:56.067Z,74.74
2023-01-25T12:17:38.607Z,73.83
2023-01-25T12:20:20.332Z,75.82
2023-01-25T12:23:21.056Z,73.48
2023-01-25T12:25:52.277Z,73.52
2023-01-25T12:28:25.458Z,73.89
2023-01-25T12:31:24.866Z,72.50
2023-01-25T12:34:05.035Z,73.75
2023-01-25T12:36:37.450Z,73.48
2023-01-25T12:39:06.398Z,72.65
2023-01-25T12:41:44.831Z,72.49
2023-01-25T12:44:23.822Z,73.51
2023-01-25T12:46:57.681Z,74.55
2023-01-25T12:49:33.512Z,74.41
2023-01-25T12:52:06.542Z,74.47
2023-01-25T12:54:38.061Z,73.60
2023-01-25T12:57:22.079Z,73.99
2023-01-25T13:00:00.646Z,73.11
2023-01-25T13:02:50.300Z,72.92
2023-01-25T13:05:48.354Z,74.02
2023-01-25T13:08:33.792Z,74.68
2023-01-25T13:11:12.620Z,73.86
2023-01-25T13:13:39.566Z,74.43
2023-01-25T13:16:28.916Z,74.97
2023-01-25T13:18:56.491Z,74.66
2023-01-25T13:21:40.199Z,75.86
2023-01-25T13:24:11.109Z,75.29
2023-01-25T13:26:49.536Z,75.25
2023-01-25T13:29:45.798Z,75.52
2023-01-25T13:32:24.518Z,74.01
2023-01-25T13:34:51.595Z,74.15
2023-01-25T13:37:20.343Z,75.27
2023-01-25T13:39:49.895Z,73.88
2023-01-25T13:42:19.651Z,73.74
2023-01-25T13:44:55.765Z,73.10
2023-01-25T13:47:43.533Z,74.39
2023-01-25T13:50:27.522Z,73.68
2023-01-25T13:53:01.606Z,75.17
2023-01-25T13:55:29.507Z,74.54
2023-01-25T13:58:19.148Z,74.51
2023-01-25T14:00:52.973Z,74.45
2023-01-25T14:03:23.144Z,74.72
2023-01-25T14:05:52.579Z,75.11
2023-01-25T14:08:20.869Z,75.57
2023-01-25T14:10:48.696Z,75.72
2023-01-25T14:13:17.361Z,76.08
2023-01-25T14:15:58.669Z,76.82
2023-01-25T14:18:32.576Z,76.30
2023-01-25T14:21:20.493Z,76.33
2023-01-25T14:23:49.012Z,76.25
2023-01-25T14:26:26.589Z,76.75
2023-01-25T14:29:01.365Z,75.60
2023-01-25T14:31:38.117Z,75.48
2023-01-25T14:34:06.148Z,74.95
2023-01-25T14:36:34.662Z,74.68
2023-01-25T14:39:03.789Z,74.77
2023-01-25T14:41:37.184Z,73.91
2023-01-25T14:44:13.473Z,72.80
2023-01-25T14:46:41.527Z,73.50
2023-01-25T14:49:25.229Z,73.58
2023-01-25T14:51:54.813Z,73.49
2023-01-25T14:54:28.108Z,72.95
2023-01-25T14:56:57.652Z,72.11
2023-01-25T14:59:27.359Z,71.62
2023-01-25T15:01:56.182Z,71.80
2023-01-25T15:04:23.395Z,72.75
2023-01-25T15:06:57.382Z,73.50
2023-01-25T15:09:34.040Z,72.56
2023-01-25T15:12:16.098Z,73.05
2023-01-25T15:14:51.088Z,72.00
2023-01-25T15:17:37.806Z,72.30
2023-01-25T15:20:04.755Z,74.36
2023-01-25T15:22:31.416Z,73.82
2023-01-25T15:24:58.704Z,72.50
2023-01-25T15:27:25.255Z,73.72
2023-01-25T15:29:51.912Z,72.32
2023-01-25T15:32:21.029Z,72.55
2023-01-25T15:34:48.300Z,73.15
2023-01-25T15:37:14.889Z,73.19
2023-01-25T15:39:41.479Z,72.56
2023-01-25T15:42:09.051Z,73.87
2023-01-25T15:44:35.625Z,74.61
2023-01-25T15:47:02.307Z,74.67
2023-01-25T15:49:31.534Z,73.43
2023-01-25T15:51:58.259Z,73.75
2023-01-25T15:54:25.014Z,74.67
2023-01-25T15:56:55.944Z,74.84
2023-01-25T15:59:22.646Z,74.84
2023-01-25T16:01:49.199Z,75.33
2023-01-25T16:04:16.028Z,74.93
2023-01-25T16:06:54.007Z,75.33
2023-01-25T16:09:22.241Z,76.61
2023-01-25T16:11:54.216Z,75.93
2023-01-25T16:14:23.441Z,76.51
2023-01-25T16:16:52.137Z,76.59
2023-01-25T16:19:21.908Z,76.71
2023-01-25T16:21:49.322Z,76.74
2023-01-25T16:24:16.231Z,77.06
2023-01-25T16:26:53.300Z,76.29
2023-01-25T16:29:20.462Z,75.83
2023-01-25T16:31:47.104Z,75.90
2023-01-25T16:34:13.959Z,75.58
2023-01-25T16:36:40.719Z,74.93
2023-01-25T16:39:21.752Z,75.66
2023-01-25T16:41:49.244Z,76.54
2023-01-25T16:44:16.454Z,76.93
2023-01-25T16:46:43.473Z,77.64
2023-01-25T16:49:22.484Z,77.09
2023-01-25T16:51:50.315Z,77.28
2023-01-25T16:54:19.765Z,77.46
2023-01-25T16:56:47.343Z,77.21
2023-01-25T16:59:13.937Z,78.32
2023-01-25T17:01:41.583Z,77.60
2023-01-25T17:04:09.176Z,77.87
2023-01-25T17:06:38.185Z,77.29
2023-01-25T17:09:21.620Z,77.48
2023-01-25T17:11:49.646Z,78.37
2023-01-25T17:14:18.660Z,79.16
2023-01-25T17:16:47.862Z,79.06
2023-01-25T17:19:15.946Z,78.64
2023-01-25T17:21:42.764Z,78.29
2023-01-25T17:24:13.318Z,79.31
2023-01-25T17:26:40.881Z,79.13
2023-01-25T17:29:10.029Z,79.12
2023-01-25T17:31:37.135Z,79.45
2023-01-25T17:34:06.414Z,79.25
2023-01-25T17:36:33.290Z,80.10
2023-01-25T17:39:05.174Z,80.54
2023-01-25T17:41:32.490Z,81.17
2023-01-25T17:43:59.385Z,79.84
2023-01-25T17:46:33.113Z,79.44
2023-01-25T17:49:02.167Z,79.63
2023-01-25T17:51:28.799Z,79.14
2023-01-25T17:53:55.436Z,79.80
2023-01-25T17:56:21.944Z,80.78
2023-01-25T17:58:48.769Z,81.38
2023-01-25T18:01:18.224Z,81.61
2023-01-25T18:03:46.590Z,82.38
2023-01-25T18:06:16.764Z,82.11
2023-01-25T18:08:48.922Z,80.84
2023-01-25T18:11:18.548Z,81.81
2023-01-25T18:13:49.939Z,81.60
2023-01-25T18:16:17.818Z,82.04
2023-01-25T18:18:45.352Z,82.16
2023-01-25T18:21:21.944Z,82.92
2023-01-25T18:23:48.766Z,82.21
2023-01-25T18:26:26.768Z,81.31
2023-01-25T18:28:55.239Z,82.78
2023-01-25T18:31:21.956Z,82.90
2023-01-25T18:33:48.543Z,83.01
2023-01-25T18:36:15.993Z,83.34
2023-01-25T18:38:42.845Z,83.86
2023-01-25T18:41:09.517Z,83.72
2023-01-25T18:43:36.113Z,83.30
2023-01-25T18:46:02.797Z,82.95
2023-01-25T18:48:32.331Z,83.61
2023-01-25T18:51:12.819Z,83.16
2023-01-25T18:53:42.219Z,84.04
2023-01-25T18:56:12.907Z,83.58
2023-01-25T18:58:39.899Z,81.73
2023-01-25T19:01:10.416Z,82.46
2023-01-25T19:03:37.139Z,82.02
2023-01-25T19:06:04.426Z,80.70
2023-01-25T19:08:33.024Z,80.84
2023-01-25T19:11:05.862Z,81.29
2023-01-25T19:13:37.204Z,81.34
2023-01-25T19:16:06.785Z,81.02
2023-01-25T19:18:39.421Z,81.44
2023-01-25T19:21:10.249Z,81.02
2023-01-25T19:23:38.668Z,81.17
2023-01-25T19:26:07.099Z,81.60
2023-01-25T19:28:38.667Z,81.23
2023-01-25T19:31:09.489Z,79.47
2023-01-25T19:33:36.713Z,80.54
2023-01-25T19:36:06.517Z,80.79
2023-01-25T19:38:38.373Z,79.65
2023-01-25T19:41:06.882Z,79.31
2023-01-25T19:43:33.521Z,79.96
2023-01-25T19:46:17.675Z,79.04
2023-01-25T19:48:46.436Z,80.39
2023-01-25T19:51:19.816Z,79.86
2023-01-25T19:53:52.775Z,79.67
2023-01-25T19:56:19.646Z,80.99
2023-01-25T19:58:47.936Z,82.15
2023-01-25T20:01:19.936Z,81.44
2023-01-25T20:03:47.263Z,80.63
2023-01-25T20:06:16.262Z,80.29
2023-01-25T20:08:44.247Z,80.15
2023-01-25T20:11:19.618Z,80.99
2023-01-25T20:13:47.023Z,80.91
2023-01-25T20:16:17.055Z,80.96
2023-01-25T20:18:45.053Z,80.44
2023-01-25T20:21:14.675Z,81.95
2023-01-25T20:23:43.465Z,81.09
2023-01-25T20:26:15.929Z,79.62
2023-01-25T20:28:44.295Z,80.60
2023-01-25T20:31:27.845Z,80.15
2023-01-25T20:33:59.543Z,80.04
2023-01-25T20:36:28.575Z,79.34
2023-01-25T20:38:56.220Z,80.70
2023-01-25T20:41:23.482Z,79.63
2023-01-25T20:44:01.972Z,78.54
2023-01-25T20:46:33.548Z,78.67
2023-01-25T20:49:01.670Z,79.46
2023-01-25T20:51:28.510Z,78.94
2023-01-25T20:53:55.573Z,79.23
2023-01-25T20:56:23.024Z,79.01
2023-01-25T20:58:50.777Z,78.68
2023-01-25T21:01:19.198Z,78.71
2023-01-25T21:03:46.051Z,79.10
2023-01-25T21:06:13.422Z,79.14
2023-01-25T21:08:40.159Z,77.68
2023-01-25T21:11:07.271Z,78.43
2023-01-25T21:13:33.938Z,79.20
2023-01-25T21:16:10.253Z,78.85
2023-01-25T21:18:39.285Z,77.87
2023-01-25T21:21:12.328Z,77.07
2023-01-25T21:23:41.218Z,77.41
2023-01-25T21:26:10.583Z,77.78
2023-01-25T21:28:37.191Z,78.44
2023-01-25T21:31:12.079Z,78.25
2023-01-25T21:33:39.283Z,78.75
2023-01-25T21:36:08.586Z,79.06
2023-01-25T21:38:36.118Z,78.61
2023-01-25T21:41:04.812Z,79.15
2023-01-25T21:43:52.600Z,79.27
2023-01-25T21:46:27.198Z,79.29
2023-01-25T21:49:18.201Z,78.58
2023-01-25T21:51:50.824Z,79.59
2023-01-25T21:54:25.572Z,79.59
2023-01-25T21:56:54.351Z,79.34
2023-01-25T21:59:21.636Z,80.01
2023-01-25T22:01:48.871Z,79.89
2023-01-25T22:04:17.148Z,80.42
2023-01-25T22:06:44.141Z,81.20
2023-01-25T22:09:13.061Z,80.20
2023-01-25T22:11:40.208Z,80.26
2023-01-25T22:14:06.815Z,80.95
2023-01-25T22:16:33.730Z,80.41
2023-01-25T22:19:00.477Z,80.40
2023-01-25T22:21:30.599Z,80.76
2023-01-25T22:23:59.063Z,81.07
2023-01-25T22:26:29.953Z,80.35
2023-01-25T22:28:58.715Z,79.92
2023-01-25T22:31:28.245Z,79.38
2023-01-25T22:33:56.461Z,80.32
2023-01-25T22:36:25.100Z,80.32
2023-01-25T22:38:51.800Z,80.55
2023-01-25T22:41:23.966Z,79.65
2023-01-25T22:43:51.329Z,79.31
2023-01-25T22:46:20.745Z,79.00
2023-01-25T22:48:47.852Z,78.96
2023-01-25T22:51:19.893Z,79.19
2023-01-25T22:53:46.595Z,80.04
2023-01-25T22:56:16.121Z,79.43
2023-01-25T22:58:44.311Z,78.47
2023-01-25T23:01:17.853Z,79.22
2023-01-25T23:03:45.064Z,77.87
2023-01-25T23:06:14.640Z,78.27
2023-01-25T23:08:41.739Z,78.82
2023-01-25T23:11:11.826Z,79.04
2023-01-25T23:13:39.794Z,79.07
2023-01-25T23:16:09.063Z,79.85
2023-01-25T23:18:51.610Z,78.74
2023-01-25T23:21:20.988Z,78.83
2023-01-25T23:23:48.702Z,79.48
2023-01-25T23:26:16.448Z,79.33
2023-01-25T23:28:43.403Z,80.03
2023-01-25T23:31:18.650Z,78.59
2023-01-25T23:33:47.307Z,79.19
2023-01-25T23:36:19.025Z,80.01
2023-01-25T23:38:46.506Z,80.00
2023-01-25T23:41:14.442Z,80.30
2023-01-25T23:43:41.500Z,80.89
2023-01-25T23:46:08.755Z,80.94
2023-01-25T23:48:35.467Z,80.89
2023-01-25T23:51:02.561Z,81.86
2023-01-25T23:53:33.128Z,82.38
2023-01-25T23:56:02.199Z,82.51
2023-01-25T23:58:29.946Z,83.22
